sensor_id;sensor_type;location;lat;lon;timestamp;pressure;altitude;pressure_sealevel;temperature;humidity
56142;BME280;42018;48.588;10.836;2023-06-10T00:00:31;96395.13;;;19.09;55.33
56142;BME280;42018;48.588;10.836;2023-06-10T00:03:17;96389.84;;;19.01;55.59
56142;BME280;42018;48.588;10.836;2023-06-10T00:06:04;96384.13;;;19.02;55.60
56142;BME280;42018;48.588;10.836;2023-06-10T00:08:50;96385.91;;;18.98;55.83
56142;BME280;42018;48.588;10.836;2023-06-10T00:11:36;96383.22;;;18.98;56.10
56142;BME280;42018;48.588;10.836;2023-06-10T00:14:21;96388.56;;;18.98;56.33
56142;BME280;42018;48.588;10.836;2023-06-10T00:17:07;96393.50;;;18.96;56.20
56142;BME280;42018;48.588;10.836;2023-06-10T00:19:56;96391.47;;;18.93;56.19
56142;BME280;42018;48.588;10.836;2023-06-10T00:22:42;96404.28;;;18.87;56.21
56142;BME280;42018;48.588;10.836;2023-06-10T00:25:31;96395.13;;;18.88;56.11
56142;BME280;42018;48.588;10.836;2023-06-10T00:28:18;96397.75;;;18.97;56.13
56142;BME280;42018;48.588;10.836;2023-06-10T00:31:03;96392.91;;;18.90;56.57
56142;BME280;42018;48.588;10.836;2023-06-10T00:33:49;96398.31;;;18.82;56.76
56142;BME280;42018;48.588;10.836;2023-06-10T00:36:34;96396.44;;;18.82;57.00
56142;BME280;42018;48.588;10.836;2023-06-10T00:39:21;96398.94;;;18.87;56.74
56142;BME280;42018;48.588;10.836;2023-06-10T00:42:06;96392.25;;;18.94;56.48
56142;BME280;42018;48.588;10.836;2023-06-10T00:44:54;96396.06;;;18.93;56.58
56142;BME280;42018;48.588;10.836;2023-06-10T00:47:39;96389.63;;;18.85;56.83
56142;BME280;42018;48.588;10.836;2023-06-10T00:50:25;96403.09;;;18.76;57.33
56142;BME280;42018;48.588;10.836;2023-06-10T00:53:10;96399.00;;;18.79;57.18
56142;BME280;42018;48.588;10.836;2023-06-10T00:55:56;96399.66;;;18.67;57.91
56142;BME280;42018;48.588;10.836;2023-06-10T00:58:41;96393.97;;;18.69;57.65
56142;BME280;42018;48.588;10.836;2023-06-10T01:01:28;96401.06;;;18.73;57.18
56142;BME280;42018;48.588;10.836;2023-06-10T01:04:14;96395.38;;;18.75;57.42
56142;BME280;42018;48.588;10.836;2023-06-10T01:07:24;96400.88;;;18.78;57.10
56142;BME280;42018;48.588;10.836;2023-06-10T01:10:26;96400.00;;;18.65;57.41
56142;BME280;42018;48.588;10.836;2023-06-10T01:13:13;96391.75;;;18.71;57.63
56142;BME280;42018;48.588;10.836;2023-06-10T01:16:00;96387.56;;;18.61;57.79
56142;BME280;42018;48.588;10.836;2023-06-10T01:18:45;96390.56;;;18.59;58.43
56142;BME280;42018;48.588;10.836;2023-06-10T01:21:31;96392.44;;;18.59;58.04
56142;BME280;42018;48.588;10.836;2023-06-10T01:24:16;96393.97;;;18.39;59.12
56142;BME280;42018;48.588;10.836;2023-06-10T01:27:05;96398.91;;;18.28;59.41
56142;BME280;42018;48.588;10.836;2023-06-10T01:30:03;96395.44;;;18.28;59.50
56142;BME280;42018;48.588;10.836;2023-06-10T01:32:51;96397.00;;;18.37;59.20
56142;BME280;42018;48.588;10.836;2023-06-10T01:35:37;96392.13;;;18.31;59.51
56142;BME280;42018;48.588;10.836;2023-06-10T01:38:26;96396.66;;;18.39;59.43
56142;BME280;42018;48.588;10.836;2023-06-10T01:41:13;96395.38;;;18.45;59.44
56142;BME280;42018;48.588;10.836;2023-06-10T01:44:00;96393.81;;;18.44;59.15
56142;BME280;42018;48.588;10.836;2023-06-10T01:46:46;96403.06;;;18.55;58.81
56142;BME280;42018;48.588;10.836;2023-06-10T01:49:31;96394.34;;;18.58;58.31
56142;BME280;42018;48.588;10.836;2023-06-10T01:52:17;96402.84;;;18.60;58.55
56142;BME280;42018;48.588;10.836;2023-06-10T01:55:03;96403.00;;;18.34;59.74
56142;BME280;42018;48.588;10.836;2023-06-10T01:57:49;96407.16;;;18.23;60.01
56142;BME280;42018;48.588;10.836;2023-06-10T02:00:34;96408.88;;;18.28;59.92
56142;BME280;42018;48.588;10.836;2023-06-10T02:03:19;96403.91;;;18.38;59.42
56142;BME280;42018;48.588;10.836;2023-06-10T02:06:05;96407.38;;;18.39;59.69
56142;BME280;42018;48.588;10.836;2023-06-10T02:08:50;96407.94;;;18.24;60.43
56142;BME280;42018;48.588;10.836;2023-06-10T02:11:36;96399.16;;;18.14;60.90
56142;BME280;42018;48.588;10.836;2023-06-10T02:14:21;96402.34;;;18.08;60.87
56142;BME280;42018;48.588;10.836;2023-06-10T02:17:06;96397.72;;;18.17;60.53
56142;BME280;42018;48.588;10.836;2023-06-10T02:19:52;96400.22;;;18.22;60.26
56142;BME280;42018;48.588;10.836;2023-06-10T02:22:38;96400.69;;;18.24;60.26
56142;BME280;42018;48.588;10.836;2023-06-10T02:25:23;96398.50;;;18.17;60.68
56142;BME280;42018;48.588;10.836;2023-06-10T02:28:08;96404.13;;;18.25;60.27
56142;BME280;42018;48.588;10.836;2023-06-10T02:30:54;96405.16;;;18.11;60.74
56142;BME280;42018;48.588;10.836;2023-06-10T02:33:39;96402.66;;;18.06;61.16
56142;BME280;42018;48.588;10.836;2023-06-10T02:36:25;96404.84;;;18.13;60.59
56142;BME280;42018;48.588;10.836;2023-06-10T02:39:13;96410.25;;;18.04;61.15
56142;BME280;42018;48.588;10.836;2023-06-10T02:41:58;96402.41;;;17.90;61.80
56142;BME280;42018;48.588;10.836;2023-06-10T02:44:44;96402.88;;;17.84;61.92
56142;BME280;42018;48.588;10.836;2023-06-10T02:47:29;96404.16;;;17.69;62.68
56142;BME280;42018;48.588;10.836;2023-06-10T02:50:15;96406.06;;;17.60;62.59
56142;BME280;42018;48.588;10.836;2023-06-10T02:53:00;96416.50;;;17.44;63.52
56142;BME280;42018;48.588;10.836;2023-06-10T02:55:45;96411.13;;;17.53;63.56
56142;BME280;42018;48.588;10.836;2023-06-10T02:58:31;96410.81;;;17.45;63.42
56142;BME280;42018;48.588;10.836;2023-06-10T03:01:17;96416.94;;;17.46;63.71
56142;BME280;42018;48.588;10.836;2023-06-10T03:04:04;96418.41;;;17.43;63.84
56142;BME280;42018;48.588;10.836;2023-06-10T03:06:50;96414.59;;;17.44;63.49
56142;BME280;42018;48.588;10.836;2023-06-10T03:09:35;96412.06;;;17.48;63.66
56142;BME280;42018;48.588;10.836;2023-06-10T03:12:20;96416.47;;;17.53;63.49
56142;BME280;42018;48.588;10.836;2023-06-10T03:15:06;96425.47;;;17.31;64.37
56142;BME280;42018;48.588;10.836;2023-06-10T03:17:52;96420.75;;;17.45;63.79
56142;BME280;42018;48.588;10.836;2023-06-10T03:20:37;96431.63;;;17.22;64.71
56142;BME280;42018;48.588;10.836;2023-06-10T03:23:23;96426.41;;;17.35;64.20
56142;BME280;42018;48.588;10.836;2023-06-10T03:26:08;96422.00;;;17.21;64.93
56142;BME280;42018;48.588;10.836;2023-06-10T03:28:55;96428.31;;;17.08;65.17
56142;BME280;42018;48.588;10.836;2023-06-10T03:31:40;96431.31;;;17.07;65.62
56142;BME280;42018;48.588;10.836;2023-06-10T03:34:25;96429.88;;;17.09;65.72
56142;BME280;42018;48.588;10.836;2023-06-10T03:37:11;96436.50;;;17.20;65.18
56142;BME280;42018;48.588;10.836;2023-06-10T03:39:56;96431.31;;;17.24;65.01
56142;BME280;42018;48.588;10.836;2023-06-10T03:42:41;96428.94;;;17.31;64.64
56142;BME280;42018;48.588;10.836;2023-06-10T03:45:29;96437.28;;;17.21;65.08
56142;BME280;42018;48.588;10.836;2023-06-10T03:48:14;96438.72;;;17.10;65.93
56142;BME280;42018;48.588;10.836;2023-06-10T03:51:00;96445.63;;;17.02;66.02
56142;BME280;42018;48.588;10.836;2023-06-10T03:53:45;96449.13;;;17.11;65.92
56142;BME280;42018;48.588;10.836;2023-06-10T03:56:31;96448.16;;;17.16;65.90
56142;BME280;42018;48.588;10.836;2023-06-10T03:59:16;96457.31;;;17.23;65.53
56142;BME280;42018;48.588;10.836;2023-06-10T04:02:02;96462.00;;;17.35;64.43
56142;BME280;42018;48.588;10.836;2023-06-10T04:04:47;96463.13;;;17.52;63.62
56142;BME280;42018;48.588;10.836;2023-06-10T04:07:32;96450.16;;;17.71;62.77
56142;BME280;42018;48.588;10.836;2023-06-10T04:10:19;96456.44;;;18.01;61.87
56142;BME280;42018;48.588;10.836;2023-06-10T04:13:04;96457.63;;;18.21;61.67
56142;BME280;42018;48.588;10.836;2023-06-10T04:15:50;96459.81;;;18.28;61.97
56142;BME280;42018;48.588;10.836;2023-06-10T04:18:36;96456.84;;;18.21;62.55
56142;BME280;42018;48.588;10.836;2023-06-10T04:21:22;96468.78;;;18.32;61.73
56142;BME280;42018;48.588;10.836;2023-06-10T04:24:07;96464.13;;;18.50;61.20
56142;BME280;42018;48.588;10.836;2023-06-10T04:26:52;96465.69;;;18.59;61.55
56142;BME280;42018;48.588;10.836;2023-06-10T04:29:38;96470.22;;;18.67;61.79
56142;BME280;42018;48.588;10.836;2023-06-10T04:32:23;96465.16;;;18.75;62.24
56142;BME280;42018;48.588;10.836;2023-06-10T04:35:11;96468.09;;;18.82;61.98
56142;BME280;42018;48.588;10.836;2023-06-10T04:37:56;96465.66;;;18.68;62.21
56142;BME280;42018;48.588;10.836;2023-06-10T04:40:42;96461.66;;;18.83;62.55
56142;BME280;42018;48.588;10.836;2023-06-10T04:43:27;96471.63;;;19.03;61.86
56142;BME280;42018;48.588;10.836;2023-06-10T04:46:13;96469.47;;;19.18;61.14
56142;BME280;42018;48.588;10.836;2023-06-10T04:48:58;96477.59;;;19.30;60.31
56142;BME280;42018;48.588;10.836;2023-06-10T04:51:44;96480.28;;;19.30;60.61
56142;BME280;42018;48.588;10.836;2023-06-10T04:54:29;96471.22;;;19.34;60.77
56142;BME280;42018;48.588;10.836;2023-06-10T04:57:14;96473.78;;;19.31;60.63
56142;BME280;42018;48.588;10.836;2023-06-10T05:00:00;96470.19;;;19.27;61.17
56142;BME280;42018;48.588;10.836;2023-06-10T05:02:45;96476.09;;;19.41;60.48
56142;BME280;42018;48.588;10.836;2023-06-10T05:05:34;96487.31;;;19.43;60.71
56142;BME280;42018;48.588;10.836;2023-06-10T05:08:19;96484.53;;;19.31;61.23
56142;BME280;42018;48.588;10.836;2023-06-10T05:11:05;96479.69;;;19.24;61.42
56142;BME280;42018;48.588;10.836;2023-06-10T05:13:51;96480.03;;;19.23;61.32
56142;BME280;42018;48.588;10.836;2023-06-10T05:16:36;96484.34;;;19.36;60.50
56142;BME280;42018;48.588;10.836;2023-06-10T05:19:22;96482.63;;;19.52;60.61
56142;BME280;42018;48.588;10.836;2023-06-10T05:22:07;96490.38;;;19.54;60.95
56142;BME280;42018;48.588;10.836;2023-06-10T05:24:53;96501.13;;;19.33;61.83
56142;BME280;42018;48.588;10.836;2023-06-10T05:27:38;96492.84;;;19.38;61.67
56142;BME280;42018;48.588;10.836;2023-06-10T05:30:25;96486.97;;;19.45;61.16
56142;BME280;42018;48.588;10.836;2023-06-10T05:33:11;96489.91;;;19.52;61.44
56142;BME280;42018;48.588;10.836;2023-06-10T05:35:57;96491.34;;;19.49;61.52
56142;BME280;42018;48.588;10.836;2023-06-10T05:38:42;96494.38;;;19.48;61.40
56142;BME280;42018;48.588;10.836;2023-06-10T05:41:27;96499.13;;;19.42;61.59
56142;BME280;42018;48.588;10.836;2023-06-10T05:44:13;96496.00;;;19.19;62.73
56142;BME280;42018;48.588;10.836;2023-06-10T05:46:58;96494.84;;;19.29;62.69
56142;BME280;42018;48.588;10.836;2023-06-10T05:49:43;96493.75;;;19.42;62.67
56142;BME280;42018;48.588;10.836;2023-06-10T05:52:30;96497.53;;;19.50;63.17
56142;BME280;42018;48.588;10.836;2023-06-10T05:55:16;96486.03;;;19.61;62.74
56142;BME280;42018;48.588;10.836;2023-06-10T05:58:01;96495.63;;;19.50;62.17
56142;BME280;42018;48.588;10.836;2023-06-10T06:00:46;96492.28;;;19.53;62.43
56142;BME280;42018;48.588;10.836;2023-06-10T06:03:32;96501.91;;;19.54;63.14
56142;BME280;42018;48.588;10.836;2023-06-10T06:06:18;96499.28;;;19.67;62.58
56142;BME280;42018;48.588;10.836;2023-06-10T06:09:05;96491.41;;;19.61;62.61
56142;BME280;42018;48.588;10.836;2023-06-10T06:11:51;96492.94;;;19.71;62.51
56142;BME280;42018;48.588;10.836;2023-06-10T06:14:39;96491.41;;;19.82;62.26
56142;BME280;42018;48.588;10.836;2023-06-10T06:17:25;96485.69;;;19.84;62.21
56142;BME280;42018;48.588;10.836;2023-06-10T06:20:11;96485.94;;;19.91;62.21
56142;BME280;42018;48.588;10.836;2023-06-10T06:22:56;96487.41;;;19.89;62.53
56142;BME280;42018;48.588;10.836;2023-06-10T06:25:41;96492.69;;;19.97;61.53
56142;BME280;42018;48.588;10.836;2023-06-10T06:28:27;96493.56;;;19.89;62.28
56142;BME280;42018;48.588;10.836;2023-06-10T06:31:14;96486.78;;;20.04;61.38
56142;BME280;42018;48.588;10.836;2023-06-10T06:33:59;96484.81;;;20.25;61.33
56142;BME280;42018;48.588;10.836;2023-06-10T06:36:45;96482.75;;;20.10;61.49
56142;BME280;42018;48.588;10.836;2023-06-10T06:39:30;96486.84;;;20.28;60.71
56142;BME280;42018;48.588;10.836;2023-06-10T06:42:15;96489.16;;;20.18;60.48
56142;BME280;42018;48.588;10.836;2023-06-10T06:45:01;96486.25;;;20.23;60.28
56142;BME280;42018;48.588;10.836;2023-06-10T06:47:46;96490.25;;;20.17;61.47
56142;BME280;42018;48.588;10.836;2023-06-10T06:50:32;96487.38;;;20.22;61.26
56142;BME280;42018;48.588;10.836;2023-06-10T06:53:17;96493.78;;;20.42;60.35
56142;BME280;42018;48.588;10.836;2023-06-10T06:56:02;96493.06;;;20.53;60.88
56142;BME280;42018;48.588;10.836;2023-06-10T06:58:48;96496.97;;;20.56;60.25
56142;BME280;42018;48.588;10.836;2023-06-10T07:01:33;96499.88;;;20.63;60.58
56142;BME280;42018;48.588;10.836;2023-06-10T07:04:19;96507.13;;;20.38;60.36
56142;BME280;42018;48.588;10.836;2023-06-10T07:07:07;96504.72;;;20.70;59.41
56142;BME280;42018;48.588;10.836;2023-06-10T07:09:54;96509.44;;;20.85;59.47
56142;BME280;42018;48.588;10.836;2023-06-10T07:12:39;96506.19;;;20.67;58.23
56142;BME280;42018;48.588;10.836;2023-06-10T07:15:24;96500.91;;;20.83;58.40
56142;BME280;42018;48.588;10.836;2023-06-10T07:18:10;96507.38;;;21.19;57.41
56142;BME280;42018;48.588;10.836;2023-06-10T07:20:55;96500.63;;;21.25;57.19
56142;BME280;42018;48.588;10.836;2023-06-10T07:23:44;96503.22;;;21.09;57.11
56142;BME280;42018;48.588;10.836;2023-06-10T07:26:30;96507.81;;;21.33;56.18
56142;BME280;42018;48.588;10.836;2023-06-10T07:29:15;96503.97;;;21.46;55.95
56142;BME280;42018;48.588;10.836;2023-06-10T07:32:00;96504.41;;;21.48;57.24
56142;BME280;42018;48.588;10.836;2023-06-10T07:34:46;96508.94;;;21.72;56.14
56142;BME280;42018;48.588;10.836;2023-06-10T07:37:31;96500.06;;;22.00;56.61
56142;BME280;42018;48.588;10.836;2023-06-10T07:40:16;96497.56;;;22.07;56.88
56142;BME280;42018;48.588;10.836;2023-06-10T07:43:02;96500.00;;;22.12;54.32
56142;BME280;42018;48.588;10.836;2023-06-10T07:45:47;96496.97;;;22.14;53.10
56142;BME280;42018;48.588;10.836;2023-06-10T07:48:33;96497.50;;;22.19;53.40
56142;BME280;42018;48.588;10.836;2023-06-10T07:51:18;96497.53;;;22.35;53.66
56142;BME280;42018;48.588;10.836;2023-06-10T07:54:04;96501.13;;;22.71;52.80
56142;BME280;42018;48.588;10.836;2023-06-10T07:56:49;96497.09;;;22.65;52.54
56142;BME280;42018;48.588;10.836;2023-06-10T07:59:37;96498.22;;;22.80;52.08
56142;BME280;42018;48.588;10.836;2023-06-10T08:02:23;96489.69;;;23.09;51.77
56142;BME280;42018;48.588;10.836;2023-06-10T08:05:08;96499.34;;;22.94;50.62
56142;BME280;42018;48.588;10.836;2023-06-10T08:07:53;96486.34;;;23.16;50.86
56142;BME280;42018;48.588;10.836;2023-06-10T08:10:39;96494.41;;;23.51;50.33
56142;BME280;42018;48.588;10.836;2023-06-10T08:13:24;96492.16;;;23.73;50.11
56142;BME280;42018;48.588;10.836;2023-06-10T08:16:10;96494.44;;;23.90;48.10
56142;BME280;42018;48.588;10.836;2023-06-10T08:18:55;96482.69;;;24.02;49.11
56142;BME280;42018;48.588;10.836;2023-06-10T08:21:40;96485.66;;;24.16;46.74
56142;BME280;42018;48.588;10.836;2023-06-10T08:24:26;96491.72;;;24.32;46.06
56142;BME280;42018;48.588;10.836;2023-06-10T08:27:11;96490.41;;;24.23;46.57
56142;BME280;42018;48.588;10.836;2023-06-10T08:29:57;96499.78;;;24.48;45.45
56142;BME280;42018;48.588;10.836;2023-06-10T08:32:44;96482.09;;;24.58;44.82
56142;BME280;42018;48.588;10.836;2023-06-10T08:35:29;96497.63;;;24.61;45.12
56142;BME280;42018;48.588;10.836;2023-06-10T08:38:15;96490.66;;;24.60;44.26
56142;BME280;42018;48.588;10.836;2023-06-10T08:41:03;96492.50;;;24.79;44.04
56142;BME280;42018;48.588;10.836;2023-06-10T08:44:21;96486.47;;;24.89;43.53
56142;BME280;42018;48.588;10.836;2023-06-10T08:47:15;96483.84;;;25.19;44.12
56142;BME280;42018;48.588;10.836;2023-06-10T08:50:03;96488.13;;;25.20;43.75
56142;BME280;42018;48.588;10.836;2023-06-10T08:52:54;96483.50;;;24.98;44.55
56142;BME280;42018;48.588;10.836;2023-06-10T08:55:42;96488.50;;;25.19;43.95
56142;BME280;42018;48.588;10.836;2023-06-10T08:58:32;96482.09;;;25.07;43.89
56142;BME280;42018;48.588;10.836;2023-06-10T09:01:19;96486.41;;;24.85;45.23
56142;BME280;42018;48.588;10.836;2023-06-10T09:04:04;96477.03;;;24.79;45.95
56142;BME280;42018;48.588;10.836;2023-06-10T09:06:50;96477.03;;;24.79;45.11
56142;BME280;42018;48.588;10.836;2023-06-10T09:09:36;96482.56;;;24.87;45.95
56142;BME280;42018;48.588;10.836;2023-06-10T09:12:22;96476.88;;;24.95;45.34
56142;BME280;42018;48.588;10.836;2023-06-10T09:15:07;96475.84;;;25.03;44.41
56142;BME280;42018;48.588;10.836;2023-06-10T09:17:53;96481.53;;;24.45;44.96
56142;BME280;42018;48.588;10.836;2023-06-10T09:20:38;96486.50;;;24.20;46.00
56142;BME280;42018;48.588;10.836;2023-06-10T09:23:25;96480.44;;;24.50;46.38
56142;BME280;42018;48.588;10.836;2023-06-10T09:26:10;96479.06;;;24.59;45.61
56142;BME280;42018;48.588;10.836;2023-06-10T09:29:07;96484.25;;;24.72;44.88
56142;BME280;42018;48.588;10.836;2023-06-10T09:31:56;96480.47;;;24.76;45.00
56142;BME280;42018;48.588;10.836;2023-06-10T09:34:43;96476.69;;;24.58;44.88
56142;BME280;42018;48.588;10.836;2023-06-10T09:37:29;96485.03;;;24.72;44.34
56142;BME280;42018;48.588;10.836;2023-06-10T09:40:15;96483.47;;;24.45;43.87
56142;BME280;42018;48.588;10.836;2023-06-10T09:43:00;96486.22;;;24.48;44.80
56142;BME280;42018;48.588;10.836;2023-06-10T09:45:50;96483.50;;;24.71;44.73
56142;BME280;42018;48.588;10.836;2023-06-10T09:48:41;96491.81;;;25.08;44.78
56142;BME280;42018;48.588;10.836;2023-06-10T09:51:27;96485.16;;;24.79;44.98
56142;BME280;42018;48.588;10.836;2023-06-10T09:54:13;96485.31;;;25.13;43.38
56142;BME280;42018;48.588;10.836;2023-06-10T09:56:58;96484.66;;;25.23;43.91
56142;BME280;42018;48.588;10.836;2023-06-10T09:59:45;96484.41;;;25.05;43.71
56142;BME280;42018;48.588;10.836;2023-06-10T10:02:31;96488.44;;;25.15;44.14
56142;BME280;42018;48.588;10.836;2023-06-10T10:05:22;96483.47;;;25.21;43.12
56142;BME280;42018;48.588;10.836;2023-06-10T10:08:07;96482.78;;;25.27;43.24
56142;BME280;42018;48.588;10.836;2023-06-10T10:10:53;96480.13;;;25.65;42.27
56142;BME280;42018;48.588;10.836;2023-06-10T10:13:39;96481.56;;;26.19;43.03
56142;BME280;42018;48.588;10.836;2023-06-10T10:16:32;96469.84;;;25.77;42.76
56142;BME280;42018;48.588;10.836;2023-06-10T10:19:23;96474.19;;;26.19;42.38
56142;BME280;42018;48.588;10.836;2023-06-10T10:22:15;96472.72;;;26.73;40.85
56142;BME280;42018;48.588;10.836;2023-06-10T10:25:10;96481.69;;;26.78;41.56
56142;BME280;42018;48.588;10.836;2023-06-10T10:28:08;96478.66;;;26.86;40.81
56142;BME280;42018;48.588;10.836;2023-06-10T10:30:54;96471.16;;;26.72;40.22
56142;BME280;42018;48.588;10.836;2023-06-10T10:33:58;96473.03;;;26.61;40.71
56142;BME280;42018;48.588;10.836;2023-06-10T10:36:44;96473.44;;;26.22;40.30
56142;BME280;42018;48.588;10.836;2023-06-10T10:39:33;96469.91;;;26.18;41.30
56142;BME280;42018;48.588;10.836;2023-06-10T10:42:19;96475.94;;;26.42;41.77
56142;BME280;42018;48.588;10.836;2023-06-10T10:45:06;96484.59;;;26.14;41.50
56142;BME280;42018;48.588;10.836;2023-06-10T10:47:53;96478.44;;;26.20;41.02
56142;BME280;42018;48.588;10.836;2023-06-10T10:50:40;96483.31;;;26.41;41.11
56142;BME280;42018;48.588;10.836;2023-06-10T10:53:26;96478.72;;;26.08;40.41
56142;BME280;42018;48.588;10.836;2023-06-10T10:56:16;96483.78;;;26.10;41.27
56142;BME280;42018;48.588;10.836;2023-06-10T10:59:06;96482.66;;;26.14;40.67
56142;BME280;42018;48.588;10.836;2023-06-10T11:01:52;96479.53;;;26.12;41.41
56142;BME280;42018;48.588;10.836;2023-06-10T11:04:37;96469.97;;;26.25;40.82
56142;BME280;42018;48.588;10.836;2023-06-10T11:07:30;96479.50;;;26.49;40.77
56142;BME280;42018;48.588;10.836;2023-06-10T11:10:16;96472.56;;;26.52;40.04
56142;BME280;42018;48.588;10.836;2023-06-10T11:13:22;96476.88;;;26.60;39.77
56142;BME280;42018;48.588;10.836;2023-06-10T11:16:08;96480.56;;;26.38;40.06
56142;BME280;42018;48.588;10.836;2023-06-10T11:18:55;96474.06;;;26.49;40.12
56142;BME280;42018;48.588;10.836;2023-06-10T11:22:06;96475.44;;;26.73;39.95
56142;BME280;42018;48.588;10.836;2023-06-10T11:24:52;96473.56;;;26.37;39.79
56142;BME280;42018;48.588;10.836;2023-06-10T11:27:38;96488.56;;;26.64;39.40
56142;BME280;42018;48.588;10.836;2023-06-10T11:30:25;96483.50;;;26.18;39.48
56142;BME280;42018;48.588;10.836;2023-06-10T11:33:16;96480.47;;;25.60;40.69
56142;BME280;42018;48.588;10.836;2023-06-10T11:36:06;96484.41;;;25.62;41.79
56142;BME280;42018;48.588;10.836;2023-06-10T11:38:56;96482.19;;;25.41;42.14
56142;BME280;42018;48.588;10.836;2023-06-10T11:41:41;96484.13;;;25.41;41.47
56142;BME280;42018;48.588;10.836;2023-06-10T11:44:27;96481.41;;;25.41;41.44
56142;BME280;42018;48.588;10.836;2023-06-10T11:47:14;96480.66;;;25.14;41.78
56142;BME280;42018;48.588;10.836;2023-06-10T11:49:59;96481.84;;;25.46;41.83
56142;BME280;42018;48.588;10.836;2023-06-10T11:52:44;96482.00;;;25.57;42.21
56142;BME280;42018;48.588;10.836;2023-06-10T11:55:47;96481.44;;;25.74;41.98
56142;BME280;42018;48.588;10.836;2023-06-10T11:58:33;96479.38;;;25.64;42.23
56142;BME280;42018;48.588;10.836;2023-06-10T12:01:22;96478.16;;;25.92;42.13
56142;BME280;42018;48.588;10.836;2023-06-10T12:04:10;96478.66;;;26.86;41.13
56142;BME280;42018;48.588;10.836;2023-06-10T12:06:56;96471.16;;;27.31;40.16
56142;BME280;42018;48.588;10.836;2023-06-10T12:09:41;96474.78;;;26.91;40.13
56142;BME280;42018;48.588;10.836;2023-06-10T12:12:26;96473.19;;;26.38;40.65
56142;BME280;42018;48.588;10.836;2023-06-10T12:15:23;96467.22;;;25.85;40.38
56142;BME280;42018;48.588;10.836;2023-06-10T12:18:22;96466.06;;;25.86;40.94
56142;BME280;42018;48.588;10.836;2023-06-10T12:21:23;96463.59;;;26.48;41.38
56142;BME280;42018;48.588;10.836;2023-06-10T12:24:09;96464.81;;;26.54;39.95
56142;BME280;42018;48.588;10.836;2023-06-10T12:26:56;96469.06;;;26.52;40.54
56142;BME280;42018;48.588;10.836;2023-06-10T12:29:51;96464.13;;;26.23;41.09
56142;BME280;42018;48.588;10.836;2023-06-10T12:32:43;96469.69;;;26.38;40.19
56142;BME280;42018;48.588;10.836;2023-06-10T12:35:29;96460.66;;;25.89;40.58
56142;BME280;42018;48.588;10.836;2023-06-10T12:38:14;96465.59;;;26.14;40.60
56142;BME280;42018;48.588;10.836;2023-06-10T12:41:05;96458.16;;;27.07;39.31
56142;BME280;42018;48.588;10.836;2023-06-10T12:43:51;96457.22;;;27.36;39.77
56142;BME280;42018;48.588;10.836;2023-06-10T12:46:37;96459.53;;;27.38;36.80
56142;BME280;42018;48.588;10.836;2023-06-10T12:49:23;96451.44;;;27.56;38.21
56142;BME280;42018;48.588;10.836;2023-06-10T12:52:08;96455.47;;;27.83;35.14
56142;BME280;42018;48.588;10.836;2023-06-10T12:54:54;96438.28;;;27.65;36.12
56142;BME280;42018;48.588;10.836;2023-06-10T12:57:48;96444.50;;;27.73;36.57
56142;BME280;42018;48.588;10.836;2023-06-10T13:00:34;96442.28;;;28.10;36.03
56142;BME280;42018;48.588;10.836;2023-06-10T13:03:20;96431.38;;;28.17;36.40
56142;BME280;42018;48.588;10.836;2023-06-10T13:06:05;96439.16;;;28.08;36.25
56142;BME280;42018;48.588;10.836;2023-06-10T13:08:51;96431.00;;;28.01;36.25
56142;BME280;42018;48.588;10.836;2023-06-10T13:11:37;96431.31;;;27.78;37.53
56142;BME280;42018;48.588;10.836;2023-06-10T13:14:22;96438.38;;;27.90;36.88
56142;BME280;42018;48.588;10.836;2023-06-10T13:17:07;96436.81;;;28.10;36.26
56142;BME280;42018;48.588;10.836;2023-06-10T13:19:53;96425.19;;;28.42;36.17
56142;BME280;42018;48.588;10.836;2023-06-10T13:22:38;96423.28;;;28.50;35.81
56142;BME280;42018;48.588;10.836;2023-06-10T13:25:23;96423.25;;;28.32;36.78
56142;BME280;42018;48.588;10.836;2023-06-10T13:28:09;96427.13;;;28.59;35.27
56142;BME280;42018;48.588;10.836;2023-06-10T13:30:54;96419.34;;;28.72;35.42
56142;BME280;42018;48.588;10.836;2023-06-10T13:33:39;96418.53;;;29.04;34.79
56142;BME280;42018;48.588;10.836;2023-06-10T13:36:25;96420.53;;;28.75;34.54
56142;BME280;42018;48.588;10.836;2023-06-10T13:39:11;96428.28;;;28.87;34.38
56142;BME280;42018;48.588;10.836;2023-06-10T13:41:56;96420.03;;;29.19;34.55
56142;BME280;42018;48.588;10.836;2023-06-10T13:44:41;96421.59;;;29.17;34.13
56142;BME280;42018;48.588;10.836;2023-06-10T13:47:27;96422.47;;;28.42;35.07
56142;BME280;42018;48.588;10.836;2023-06-10T13:50:12;96423.16;;;27.85;36.00
56142;BME280;42018;48.588;10.836;2023-06-10T13:52:58;96426.97;;;27.63;36.62
56142;BME280;42018;48.588;10.836;2023-06-10T13:55:43;96411.16;;;28.15;35.66
56142;BME280;42018;48.588;10.836;2023-06-10T13:58:29;96422.81;;;28.01;36.21
56142;BME280;42018;48.588;10.836;2023-06-10T14:01:14;96415.84;;;28.14;35.99
56142;BME280;42018;48.588;10.836;2023-06-10T14:04:00;96408.06;;;28.45;35.91
56142;BME280;42018;48.588;10.836;2023-06-10T14:06:45;96404.19;;;28.25;35.45
56142;BME280;42018;48.588;10.836;2023-06-10T14:09:31;96406.44;;;27.76;36.63
56142;BME280;42018;48.588;10.836;2023-06-10T14:12:16;96412.94;;;27.43;36.91
56142;BME280;42018;48.588;10.836;2023-06-10T14:15:01;96408.78;;;27.92;36.66
56142;BME280;42018;48.588;10.836;2023-06-10T14:17:48;96410.78;;;28.20;35.70
56142;BME280;42018;48.588;10.836;2023-06-10T14:20:33;96393.28;;;28.50;34.92
56142;BME280;42018;48.588;10.836;2023-06-10T14:23:18;96405.34;;;28.45;33.80
56142;BME280;42018;48.588;10.836;2023-06-10T14:26:04;96412.28;;;28.00;33.94
56142;BME280;42018;48.588;10.836;2023-06-10T14:28:51;96409.56;;;28.03;34.26
56142;BME280;42018;48.588;10.836;2023-06-10T14:31:36;96404.94;;;28.04;34.80